Time;durP1;ratioP1;P1;durP2;ratioP2;P2;SDS_P1;SDS_P2;PMS_P1;PMS_P2;Temp;Humidity;BMP_temperature;BMP_pressure;BME280_temperature;BME280_humidity;BME280_pressure;Samples;Min_cycle;Max_cycle;Signal;HPM_P1;HPM_P2
2023/07/28 00:02:07;;;;;;;1.58;0.70;;;;;;;16.03;100.00;99193.97;5086456;27;20032;-82
2023/07/28 00:04:34;;;;;;;4.75;0.75;;;;;;;16.05;100.00;99203.41;5060151;28;20118;-84
2023/07/28 00:07:00;;;;;;;1.40;0.63;;;;;;;16.01;100.00;99212.84;5100634;27;20080;-84
2023/07/28 00:09:26;;;;;;;3.05;0.98;;;;;;;16.00;100.00;99208.56;5086120;28;20431;-84
2023/07/28 00:11:52;;;;;;;2.13;0.88;;;;;;;15.95;100.00;99214.50;5068137;28;20039;-84
2023/07/28 00:14:17;;;;;;;2.03;1.23;;;;;;;15.89;100.00;99204.66;5091666;28;20039;-84
2023/07/28 00:16:43;;;;;;;1.95;1.08;;;;;;;15.87;100.00;99202.22;5075620;28;20063;-84
2023/07/28 00:19:09;;;;;;;168.82;15.80;;;;;;;15.91;100.00;99197.25;5068234;28;20122;-84
2023/07/28 00:21:35;;;;;;;5.00;0.88;;;;;;;15.94;100.00;99188.84;5085487;28;20031;-84
2023/07/28 00:24:01;;;;;;;1.25;0.63;;;;;;;15.96;100.00;99201.97;5085133;28;20111;-82
2023/07/28 00:26:26;;;;;;;3.58;0.98;;;;;;;15.97;100.00;99185.78;5068887;28;20031;-83
2023/07/28 00:28:52;;;;;;;3.70;0.95;;;;;;;15.96;100.00;99196.63;5072265;28;20401;-84
2023/07/28 00:31:18;;;;;;;3.13;0.98;;;;;;;15.96;100.00;99208.13;5084144;28;20034;-84
2023/07/28 00:33:43;;;;;;;3.58;0.90;;;;;;;15.96;100.00;99210.78;5091862;28;20027;-84
2023/07/28 00:36:09;;;;;;;3.00;0.98;;;;;;;15.91;100.00;99207.13;5077853;28;20031;-84
2023/07/28 00:38:35;;;;;;;4.47;0.95;;;;;;;15.87;100.00;99188.06;5057974;28;20035;-84
2023/07/28 00:41:01;;;;;;;5.50;1.30;;;;;;;15.81;100.00;99186.25;5076163;28;20104;-84
2023/07/28 00:43:27;;;;;;;7.47;1.65;;;;;;;15.77;100.00;99183.19;5092013;28;20023;-83
2023/07/28 00:45:53;;;;;;;3.10;1.65;;;;;;;15.75;100.00;99194.03;5089693;28;20035;-83
2023/07/28 00:48:20;;;;;;;6.15;1.38;;;;;;;15.79;100.00;99191.78;5092596;28;20042;-83
2023/07/28 00:50:48;;;;;;;2.22;1.13;;;;;;;15.84;100.00;99191.97;5057550;28;20028;-84
2023/07/28 00:53:15;;;;;;;4.35;1.20;;;;;;;15.91;100.00;99191.13;5074906;28;20774;-83
2023/07/28 00:55:42;;;;;;;4.25;1.05;;;;;;;15.96;100.00;99192.13;5065420;28;20137;-84
2023/07/28 00:58:09;;;;;;;3.20;1.08;;;;;;;16.01;100.00;99182.72;5103426;28;20035;-84
2023/07/28 01:00:35;;;;;;;2.38;1.00;;;;;;;16.02;100.00;99179.03;5105634;28;20031;-84
2023/07/28 01:03:01;;;;;;;2.47;1.30;;;;;;;16.03;100.00;99173.50;5071662;28;20031;-84
2023/07/28 01:05:39;;;;;;;6.68;1.17;;;;;;;16.04;100.00;99172.44;5102478;28;20124;-83
2023/07/28 01:08:32;;;;;;;5.43;1.33;;;;;;;16.03;100.00;99168.16;5074787;28;20177;-84
2023/07/28 01:10:59;;;;;;;4.60;1.10;;;;;;;15.95;100.00;99169.19;5079221;28;20031;-82
2023/07/28 01:13:25;;;;;;;5.30;1.20;;;;;;;15.91;100.00;99169.81;5066599;28;20039;-84
2023/07/28 01:15:51;;;;;;;4.80;1.20;;;;;;;15.82;100.00;99171.88;5067216;28;20083;-84
2023/07/28 01:18:17;;;;;;;2.28;1.00;;;;;;;15.75;100.00;99172.72;5095826;28;20036;-84
2023/07/28 01:20:47;;;;;;;1.45;0.80;;;;;;;15.71;100.00;99168.03;5074256;28;20077;-83
2023/07/28 01:23:13;;;;;;;4.13;1.00;;;;;;;15.69;100.00;99168.25;5057142;28;20027;-84
2023/07/28 01:25:57;;;;;;;2.88;1.10;;;;;;;15.73;100.00;99166.00;5103774;28;20358;-83
2023/07/28 01:28:24;;;;;;;5.75;1.23;;;;;;;15.68;100.00;99171.94;5089704;28;20110;-84
2023/07/28 01:30:49;;;;;;;2.00;1.45;;;;;;;15.62;100.00;99175.44;5087550;28;20034;-84
2023/07/28 01:33:15;;;;;;;3.53;1.33;;;;;;;15.62;100.00;99178.13;5076041;28;20031;-84
2023/07/28 01:35:41;;;;;;;4.28;1.13;;;;;;;15.60;100.00;99182.81;5089092;28;20039;-82
2023/07/28 01:38:07;;;;;;;4.75;1.40;;;;;;;15.63;100.00;99174.41;5068929;28;20035;-81
2023/07/28 01:40:33;;;;;;;3.20;1.00;;;;;;;15.61;100.00;99176.47;5071072;28;20028;-81
2023/07/28 01:42:58;;;;;;;3.08;0.95;;;;;;;15.60;100.00;99170.34;5086492;28;20081;-84
2023/07/28 01:45:24;;;;;;;3.75;0.93;;;;;;;15.63;100.00;99174.41;5091893;27;20404;-84
2023/07/28 01:47:50;;;;;;;7.57;1.00;;;;;;;15.62;100.00;99173.59;5085875;28;20024;-83
2023/07/28 01:50:15;;;;;;;3.95;1.15;;;;;;;15.61;100.00;99177.28;5083432;27;20479;-84
2023/07/28 01:52:41;;;;;;;2.30;1.15;;;;;;;15.58;100.00;99171.56;5076474;28;20024;-84
2023/07/28 01:55:07;;;;;;;3.85;1.00;;;;;;;15.58;100.00;99180.38;5054573;28;20036;-83
2023/07/28 01:57:34;;;;;;;3.53;1.20;;;;;;;15.59;100.00;99173.22;5069927;28;20031;-83
2023/07/28 02:00:00;;;;;;;4.57;1.30;;;;;;;15.55;100.00;99186.09;5078511;28;20050;-84
2023/07/28 02:02:26;;;;;;;5.00;1.58;;;;;;;15.51;100.00;99184.91;5093308;28;20020;-83
2023/07/28 02:04:51;;;;;;;6.32;1.48;;;;;;;15.50;100.00;99176.09;5058460;28;20477;-83
2023/07/28 02:07:17;;;;;;;3.15;0.90;;;;;;;15.50;100.00;99181.41;5058049;28;20036;-84
2023/07/28 02:09:43;;;;;;;6.07;1.50;;;;;;;15.46;100.00;99166.88;5089750;28;20028;-81
2023/07/28 02:12:09;;;;;;;6.13;1.55;;;;;;;15.44;100.00;99174.25;5057302;28;20535;-82
2023/07/28 02:14:34;;;;;;;3.85;1.50;;;;;;;15.42;100.00;99170.16;5076805;28;20177;-84
2023/07/28 02:17:00;;;;;;;6.47;1.38;;;;;;;15.43;100.00;99175.25;5079232;28;20027;-83
2023/07/28 02:19:26;;;;;;;7.95;1.63;;;;;;;15.41;100.00;99173.84;5087708;28;20030;-84
2023/07/28 02:21:52;;;;;;;5.72;1.52;;;;;;;15.41;100.00;99171.19;5094058;28;20031;-84
2023/07/28 02:24:18;;;;;;;5.32;1.38;;;;;;;15.40;100.00;99162.38;5092135;28;20505;-84
2023/07/28 02:26:43;;;;;;;3.42;1.20;;;;;;;15.40;100.00;99157.03;5071968;28;20196;-84
2023/07/28 02:29:09;;;;;;;3.75;1.30;;;;;;;15.41;100.00;99149.88;5101196;27;20035;-83
2023/07/28 02:31:35;;;;;;;4.43;1.38;;;;;;;15.40;100.00;99164.22;5104194;28;20028;-83
2023/07/28 02:34:01;;;;;;;7.93;1.73;;;;;;;15.38;100.00;99161.78;5080483;28;20099;-82
2023/07/28 02:36:26;;;;;;;4.85;1.70;;;;;;;15.36;100.00;99153.16;5082091;28;20028;-82
2023/07/28 02:38:52;;;;;;;4.00;1.50;;;;;;;15.35;100.00;99154.22;5072195;28;20055;-84
2023/07/28 02:41:18;;;;;;;6.57;2.47;;;;;;;15.35;100.00;99151.53;5091712;28;20028;-83
2023/07/28 02:43:44;;;;;;;6.25;1.80;;;;;;;15.34;100.00;99141.91;5076137;28;20031;-84
2023/07/28 02:46:09;;;;;;;10.02;2.05;;;;;;;15.35;100.00;99143.56;5073598;28;20040;-84
2023/07/28 02:48:35;;;;;;;5.53;1.83;;;;;;;15.34;100.00;99145.38;5075889;28;20031;-84
2023/07/28 02:51:01;;;;;;;6.72;2.15;;;;;;;15.35;100.00;99143.56;5077394;28;20032;-84
2023/07/28 02:53:27;;;;;;;7.45;2.35;;;;;;;15.34;100.00;99133.91;5111959;27;20377;-83
2023/07/28 02:55:52;;;;;;;5.40;2.40;;;;;;;15.33;100.00;99145.59;5108829;28;20027;-84
2023/07/28 02:58:18;;;;;;;3.42;1.95;;;;;;;15.34;100.00;99152.56;5107139;27;20028;-83
2023/07/28 03:00:46;;;;;;;5.00;2.13;;;;;;;15.33;100.00;99148.25;5072605;28;20393;-83
2023/07/28 03:03:15;;;;;;;6.05;2.40;;;;;;;15.35;100.00;99159.53;5094220;28;20038;-82
2023/07/28 03:05:41;;;;;;;3.45;2.33;;;;;;;15.32;100.00;99158.09;5072446;28;20036;-82
2023/07/28 03:08:25;;;;;;;4.57;1.88;;;;;;;15.30;100.00;99152.16;5090499;28;20034;-83
2023/07/28 03:10:59;;;;;;;10.80;2.00;;;;;;;15.31;100.00;99148.47;5077210;28;20106;-83
2023/07/28 03:13:24;;;;;;;6.25;1.90;;;;;;;15.22;100.00;99147.88;5093443;28;20115;-82
2023/07/28 03:15:50;;;;;;;7.45;1.90;;;;;;;15.21;100.00;99151.56;5076062;28;20031;-82
2023/07/28 03:18:19;;;;;;;7.72;2.20;;;;;;;15.17;100.00;99147.69;5059685;28;20500;-84
2023/07/28 03:20:46;;;;;;;5.47;1.92;;;;;;;15.12;100.00;99142.16;5052132;28;20032;-83
2023/07/28 03:23:12;;;;;;;4.05;1.88;;;;;;;15.06;100.00;99145.63;5033832;28;20063;-84
2023/07/28 03:25:38;;;;;;;7.47;1.70;;;;;;;15.05;100.00;99142.16;5065746;28;20048;-84
2023/07/28 03:28:04;;;;;;;6.20;1.63;;;;;;;15.04;100.00;99145.84;5050588;28;20041;-84
2023/07/28 03:30:30;;;;;;;5.95;1.70;;;;;;;15.01;100.00;99146.25;5067640;28;20470;-84
2023/07/28 03:32:56;;;;;;;11.15;1.55;;;;;;;15.00;100.00;99134.78;5069009;28;20101;-84
2023/07/28 03:35:22;;;;;;;8.45;1.90;;;;;;;14.95;100.00;99129.28;5066557;28;20029;-83
2023/07/28 03:37:56;;;;;;;6.35;1.60;;;;;;;14.91;100.00;99124.59;5068627;28;20040;-82
2023/07/28 03:40:22;;;;;;;6.57;1.30;;;;;;;14.84;100.00;99127.25;5065451;28;20040;-82
2023/07/28 03:42:53;;;;;;;8.38;2.00;;;;;;;14.80;100.00;99124.16;5052652;28;20131;-84
2023/07/28 03:45:19;;;;;;;5.38;1.50;;;;;;;14.78;100.00;99122.72;5067829;28;20641;-84
2023/07/28 03:47:45;;;;;;;10.85;1.50;;;;;;;14.71;100.00;99128.03;5068530;28;20109;-84
2023/07/28 03:50:10;;;;;;;4.30;1.73;;;;;;;14.69;100.00;99130.06;5068669;28;20028;-83
2023/07/28 03:52:36;;;;;;;3.92;1.70;;;;;;;14.66;100.00;99117.16;5051529;28;20102;-84
2023/07/28 03:55:03;;;;;;;3.80;1.67;;;;;;;14.62;100.00;99125.56;5033433;28;20382;-84
2023/07/28 03:57:28;;;;;;;6.22;2.22;;;;;;;14.59;100.00;99119.81;5037313;28;20463;-83
2023/07/28 03:59:54;;;;;;;3.60;1.65;;;;;;;14.55;100.00;99119.44;5051739;28;20119;-83
2023/07/28 04:02:20;;;;;;;4.03;1.80;;;;;;;14.48;100.00;99124.72;5051087;28;20025;-83
2023/07/28 04:04:46;;;;;;;3.00;1.77;;;;;;;14.44;100.00;99120.03;5063195;28;20584;-84
2023/07/28 04:07:12;;;;;;;2.83;1.50;;;;;;;14.39;100.00;99117.97;5054796;28;20037;-84
2023/07/28 04:09:38;;;;;;;7.43;1.95;;;;;;;14.35;100.00;99116.75;5040791;28;20044;-84
2023/07/28 04:12:04;;;;;;;4.68;2.03;;;;;;;14.35;100.00;99122.06;5056408;28;20033;-84
2023/07/28 04:14:29;;;;;;;5.43;1.70;;;;;;;14.31;100.00;99124.31;5064552;28;20111;-84
2023/07/28 04:16:55;;;;;;;8.10;2.08;;;;;;;14.29;100.00;99120.19;5069226;28;20493;-84
2023/07/28 04:19:21;;;;;;;6.15;1.50;;;;;;;14.27;100.00;99121.22;5075634;28;20043;-84
2023/07/28 04:21:47;;;;;;;2.30;1.80;;;;;;;14.26;100.00;99122.25;5086732;28;20059;-84
2023/07/28 04:24:13;;;;;;;2.47;1.50;;;;;;;14.24;100.00;99129.59;5078888;28;20137;-84
2023/07/28 04:26:48;;;;;;;7.13;1.50;;;;;;;14.26;100.00;99122.25;5067084;28;20031;-84
2023/07/28 04:29:14;;;;;;;5.40;1.73;;;;;;;14.28;100.00;99122.06;5073162;28;20526;-83
2023/07/28 04:31:40;;;;;;;11.98;2.17;;;;;;;14.29;100.00;99120.19;5071268;28;20036;-84
2023/07/28 04:34:10;;;;;;;5.20;1.70;;;;;;;14.31;100.00;99123.47;5072042;28;20043;-84
2023/07/28 04:36:56;;;;;;;;;;;;;;;14.29;100.00;99113.03;5067680;28;20032;-84
2023/07/28 04:39:25;;;;;;;5.15;1.88;;;;;;;14.31;100.00;99112.84;5082130;28;19912;-84
2023/07/28 04:41:51;;;;;;;5.53;1.38;;;;;;;14.26;100.00;99106.31;5089648;28;20028;-83
2023/07/28 04:44:19;;;;;;;7.38;1.67;;;;;;;14.27;100.00;99115.91;5091721;28;20367;-84
2023/07/28 04:46:47;;;;;;;6.85;1.40;;;;;;;14.29;100.00;99113.03;5076676;28;20091;-84
2023/07/28 04:49:14;;;;;;;5.05;1.48;;;;;;;14.32;100.00;99115.28;5093324;28;20055;-84
2023/07/28 04:51:59;;;;;;;14.02;1.73;;;;;;;14.30;100.00;99109.34;5095455;28;20028;-84
2023/07/28 04:54:43;;;;;;;7.68;1.45;;;;;;;14.32;100.00;99117.94;5087314;28;20032;-84
2023/07/28 04:57:09;;;;;;;2.65;1.27;;;;;;;14.32;100.00;99106.50;5092209;28;20028;-84
2023/07/28 04:59:37;;;;;;;4.68;1.60;;;;;;;14.34;100.00;99101.81;5067604;28;20079;-84
2023/07/28 05:02:03;;;;;;;4.80;1.50;;;;;;;14.33;100.00;99110.81;5071688;28;20359;-84
2023/07/28 05:04:29;;;;;;;5.97;1.42;;;;;;;14.32;100.00;99109.16;5072555;28;20031;-84
2023/07/28 05:06:55;;;;;;;3.05;1.27;;;;;;;14.32;100.00;99103.84;5074275;28;20027;-84
2023/07/28 05:09:21;;;;;;;3.30;1.05;;;;;;;14.35;100.00;99109.56;5093130;28;20094;-84
2023/07/28 05:11:46;;;;;;;3.15;1.10;;;;;;;14.37;100.00;99112.03;5072331;28;20035;-84
2023/07/28 05:14:12;;;;;;;4.20;1.85;;;;;;;14.35;100.00;99108.78;5091060;28;20133;-84
2023/07/28 05:16:38;;;;;;;6.95;1.50;;;;;;;14.35;100.00;99106.91;5070491;28;20036;-84
2023/07/28 05:19:10;;;;;;;4.80;1.13;;;;;;;14.37;100.00;99112.03;5088724;28;20096;-84
2023/07/28 05:22:08;;;;;;;4.13;1.25;;;;;;;14.38;100.00;99108.38;5078559;28;20036;-84
2023/07/28 05:24:46;;;;;;;5.20;1.52;;;;;;;14.40;100.00;99103.66;5094377;28;20039;-84
2023/07/28 05:27:13;;;;;;;10.40;1.60;;;;;;;14.45;100.00;99113.66;5062984;28;20044;-84
2023/07/28 05:29:42;;;;;;;4.68;1.10;;;;;;;14.47;100.00;99114.31;5095299;28;20092;-84
2023/07/28 05:32:08;;;;;;;3.40;1.40;;;;;;;14.52;100.00;99114.50;5058589;28;20481;-83
2023/07/28 05:34:54;;;;;;;3.35;1.17;;;;;;;14.55;100.00;99108.78;5063941;28;20059;-84
2023/07/28 05:37:20;;;;;;;3.95;1.25;;;;;;;14.59;100.00;99109.19;5093695;28;20034;-84
2023/07/28 05:39:45;;;;;;;5.95;1.42;;;;;;;14.61;100.00;99102.66;5095396;28;20059;-84
2023/07/28 05:42:11;;;;;;;3.63;1.02;;;;;;;14.61;100.00;99105.31;5076111;28;20481;-84
2023/07/28 05:44:37;;;;;;;3.90;1.30;;;;;;;14.62;100.00;99104.28;5094853;28;20075;-84
2023/07/28 05:47:03;;;;;;;4.50;1.30;;;;;;;14.65;100.00;99105.72;5071301;28;20058;-83
2023/07/28 05:49:29;;;;;;;3.15;1.20;;;;;;;14.65;100.00;99103.06;5075370;28;20027;-84
2023/07/28 05:51:55;;;;;;;1.63;0.90;;;;;;;14.67;100.00;99110.84;5093211;28;20047;-84
2023/07/28 05:54:21;;;;;;;3.33;1.48;;;;;;;14.68;100.00;99112.47;5075093;28;20214;-83
2023/07/28 05:56:47;;;;;;;3.38;1.30;;;;;;;14.67;100.00;99109.00;5075452;28;20048;-83
2023/07/28 05:59:12;;;;;;;3.45;1.00;;;;;;;14.68;100.00;99102.66;5090364;28;20032;-84
2023/07/28 06:01:38;;;;;;;5.53;1.00;;;;;;;14.69;100.00;99100.81;5095681;28;20047;-84
2023/07/28 06:04:04;;;;;;;5.70;1.58;;;;;;;14.69;100.00;99106.13;5094832;28;20047;-84
2023/07/28 06:06:33;;;;;;;7.28;1.20;;;;;;;14.71;100.00;99099.59;5073969;28;21903;-84
2023/07/28 06:08:59;;;;;;;4.13;1.00;;;;;;;14.68;100.00;99102.66;5088607;28;20036;-84
2023/07/28 06:11:26;;;;;;;2.15;1.08;;;;;;;14.68;100.00;99104.50;5096995;28;20164;-83
2023/07/28 06:13:51;;;;;;;2.35;1.25;;;;;;;14.66;100.00;99102.03;5063791;28;20183;-84
2023/07/28 06:16:17;;;;;;;7.43;1.20;;;;;;;14.65;100.00;99105.72;5094352;28;20076;-84
2023/07/28 06:18:47;;;;;;;2.78;1.10;;;;;;;14.64;100.00;99109.41;5074930;28;20074;-83
2023/07/28 06:21:16;;;;;;;4.35;1.30;;;;;;;14.70;100.00;99118.41;5090509;28;20398;-83
2023/07/28 06:23:42;;;;;;;4.20;1.30;;;;;;;14.71;100.00;99128.84;5094147;28;20046;-83
2023/07/28 06:26:08;;;;;;;3.58;1.10;;;;;;;14.70;100.00;99129.84;5057378;28;20028;-83
2023/07/28 06:28:34;;;;;;;4.68;1.80;;;;;;;14.65;100.00;99127.00;5109772;28;20046;-84
2023/07/28 06:31:00;;;;;;;1.58;0.80;;;;;;;14.58;100.00;99128.81;5085209;28;20036;-84
2023/07/28 06:33:29;;;;;;;2.30;1.10;;;;;;;14.52;100.00;99122.50;5094527;28;20044;-83
2023/07/28 06:35:54;;;;;;;2.85;1.20;;;;;;;14.50;100.00;99125.34;5093746;28;20028;-84
2023/07/28 06:38:20;;;;;;;4.05;1.38;;;;;;;14.48;100.00;99127.38;5097021;28;20066;-81
2023/07/28 06:40:46;;;;;;;3.88;1.30;;;;;;;14.50;100.00;99125.34;5111367;28;20034;-83
2023/07/28 06:43:12;;;;;;;4.55;1.00;;;;;;;14.56;100.00;99125.53;5075519;28;20039;-83
2023/07/28 06:45:38;;;;;;;1.48;0.88;;;;;;;14.59;100.00;99133.13;5079602;28;20932;-83
2023/07/28 06:48:04;;;;;;;4.72;1.08;;;;;;;14.57;100.00;99125.34;5103732;28;20107;-83
2023/07/28 06:50:30;;;;;;;3.38;1.02;;;;;;;14.58;100.00;99134.97;5071167;28;20477;-83
2023/07/28 06:52:56;;;;;;;7.90;1.33;;;;;;;14.60;100.00;99132.94;5078398;28;20111;-83
2023/07/28 06:55:25;;;;;;;2.72;1.23;;;;;;;14.67;100.00;99121.47;5062023;28;20062;-82
2023/07/28 06:57:50;;;;;;;2.63;1.08;;;;;;;14.70;100.00;99118.41;5067289;28;20032;-83
2023/07/28 07:00:20;;;;;;;3.80;1.27;;;;;;;14.72;100.00;99122.50;5055966;28;20667;-83
2023/07/28 07:02:45;;;;;;;1.83;1.20;;;;;;;14.75;100.00;99124.75;5080936;28;20085;-84
2023/07/28 07:05:11;;;;;;;6.03;1.42;;;;;;;14.81;100.00;99122.34;5080872;28;20427;-83
2023/07/28 07:07:38;;;;;;;4.75;1.33;;;;;;;14.85;100.00;99118.22;5075867;28;20039;-82
2023/07/28 07:10:06;;;;;;;3.72;1.63;;;;;;;14.89;100.00;99119.47;5066358;28;20067;-82
2023/07/28 07:12:32;;;;;;;5.47;1.02;;;;;;;14.88;100.00;99115.97;5059819;28;20393;-83
2023/07/28 07:14:58;;;;;;;6.68;1.00;;;;;;;14.93;100.00;99114.53;5074691;28;20032;-82
2023/07/28 07:17:23;;;;;;;3.50;1.23;;;;;;;14.98;100.00;99117.41;5062273;28;20802;-84
2023/07/28 07:19:49;;;;;;;1.92;0.80;;;;;;;14.97;100.00;99111.25;5057332;28;20037;-84
2023/07/28 07:22:15;;;;;;;2.40;0.93;;;;;;;14.99;100.00;99117.19;5047355;28;20037;-83
2023/07/28 07:24:41;;;;;;;3.72;0.98;;;;;;;15.02;100.00;99117.81;5067314;28;20028;-83
2023/07/28 07:27:07;;;;;;;5.03;1.30;;;;;;;15.06;100.00;99114.53;5058742;28;20082;-83
2023/07/28 07:29:32;;;;;;;4.82;1.42;;;;;;;15.13;100.00;99109.19;5064058;28;20391;-83
2023/07/28 07:31:58;;;;;;;4.22;1.15;;;;;;;15.18;100.00;99111.25;5064118;28;20067;-83
2023/07/28 07:34:24;;;;;;;5.55;1.42;;;;;;;15.23;100.00;99106.91;5046991;28;20043;-82
2023/07/28 07:36:50;;;;;;;4.22;1.00;;;;;;;15.27;100.00;99099.34;5064697;28;20090;-84
2023/07/28 07:39:16;;;;;;;3.13;1.10;;;;;;;15.33;100.00;99095.84;5067919;28;20028;-83
2023/07/28 07:41:41;;;;;;;5.25;1.05;;;;;;;15.41;100.00;99091.31;5042486;28;20035;-83
2023/07/28 07:44:07;;;;;;;4.28;1.30;;;;;;;15.46;100.00;99089.66;5070481;28;20041;-83
2023/07/28 07:46:33;;;;;;;3.47;1.05;;;;;;;15.51;100.00;99097.03;5067453;28;20039;-83
2023/07/28 07:48:59;;;;;;;3.90;0.80;;;;;;;15.63;100.00;99086.53;5067295;28;20032;-82
2023/07/28 07:51:25;;;;;;;3.00;0.85;;;;;;;15.85;100.00;99087.03;5035375;28;20044;-82
2023/07/28 07:53:50;;;;;;;5.80;0.95;;;;;;;15.94;100.00;99092.13;5065711;28;20107;-83
2023/07/28 07:56:16;;;;;;;2.35;1.08;;;;;;;15.90;100.00;99081.06;5063552;28;20024;-83
2023/07/28 07:58:42;;;;;;;2.20;0.65;;;;;;;15.79;100.00;99081.72;5060089;28;20442;-83
2023/07/28 08:01:08;;;;;;;3.85;0.95;;;;;;;15.60;100.00;99081.63;5064701;28;20028;-83
2023/07/28 08:03:38;;;;;;;2.50;0.60;;;;;;;15.60;100.00;99081.63;5069630;28;20032;-83
2023/07/28 08:06:03;;;;;;;2.35;0.63;;;;;;;15.69;100.00;99074.19;5057440;28;20503;-83
2023/07/28 08:08:31;;;;;;;5.30;0.95;;;;;;;15.80;100.00;99073.53;5066636;28;20036;-82
2023/07/28 08:10:57;;;;;;;1.17;0.60;;;;;;;15.96;100.00;99066.88;5065253;28;20132;-82
2023/07/28 08:13:22;;;;;;;1.25;0.40;;;;;;;16.02;100.00;99062.59;5052931;28;20519;-83
2023/07/28 08:15:48;;;;;;;1.95;0.70;;;;;;;16.20;100.00;99069.03;5068343;28;20044;-83
2023/07/28 08:18:14;;;;;;;2.85;0.50;;;;;;;16.29;100.00;99062.41;5072166;28;20572;-84
2023/07/28 08:20:40;;;;;;;1.27;0.55;;;;;;;16.37;100.00;99061.31;5075002;28;20031;-83
2023/07/28 08:23:07;;;;;;;3.53;0.50;;;;;;;16.49;100.00;99061.44;5093146;28;20028;-83
2023/07/28 08:25:34;;;;;;;3.72;0.70;;;;;;;16.59;100.00;99056.44;5060036;28;20081;-83
2023/07/28 08:28:00;;;;;;;1.52;0.50;;;;;;;16.64;100.00;99068.28;5075424;28;20118;-82
2023/07/28 08:30:26;;;;;;;1.35;0.50;;;;;;;16.68;100.00;99062.28;5092688;28;20394;-82
2023/07/28 08:32:52;;;;;;;1.70;0.70;;;;;;;16.73;100.00;99054.47;5064257;28;20028;-83
2023/07/28 08:35:18;;;;;;;2.00;0.70;;;;;;;16.77;100.00;99065.50;5091099;28;20106;-84
2023/07/28 08:37:44;;;;;;;2.67;0.50;;;;;;;16.84;100.00;99060.09;5107188;28;20615;-83
2023/07/28 08:40:10;;;;;;;3.15;0.50;;;;;;;16.83;100.00;99066.47;5085332;28;20031;-83
2023/07/28 08:42:38;;;;;;;1.75;0.73;;;;;;;16.89;100.00;99060.25;5108264;28;20027;-82
2023/07/28 08:45:05;;;;;;;1.63;0.50;;;;;;;16.95;100.00;99061.22;5057136;28;20027;-82
2023/07/28 08:47:35;;;;;;;1.60;0.65;;;;;;;17.08;100.00;99053.13;5090456;28;20031;-83
2023/07/28 08:50:01;;;;;;;2.45;0.82;;;;;;;17.08;100.00;99044.28;5103572;28;20381;-83
2023/07/28 08:52:27;;;;;;;5.85;0.70;;;;;;;17.12;100.00;99032.13;5084436;28;20070;-83
2023/07/28 08:54:53;;;;;;;3.33;0.80;;;;;;;17.19;100.00;99043.56;5103198;28;20482;-83
2023/07/28 08:57:20;;;;;;;2.30;0.60;;;;;;;17.25;100.00;99033.81;5101185;28;20038;-83
2023/07/28 08:59:49;;;;;;;5.03;0.82;;;;;;;17.29;100.00;99039.53;5102951;28;20034;-83
2023/07/28 09:02:19;;;;;;;1.73;0.52;;;;;;;17.28;100.00;99036.03;5074725;28;20448;-83
2023/07/28 09:04:47;;;;;;;1.17;0.40;;;;;;;17.35;100.00;99038.66;5091360;28;20040;-83
2023/07/28 09:07:13;;;;;;;1.83;0.60;;;;;;;17.42;100.00;99033.22;5088108;28;20031;-83
2023/07/28 09:09:43;;;;;;;2.15;0.60;;;;;;;17.49;100.00;99041.97;5063625;28;20040;-84
2023/07/28 09:12:09;;;;;;;3.55;0.57;;;;;;;17.56;100.00;99040.03;5075414;28;20887;-83
2023/07/28 09:14:36;;;;;;;4.07;0.80;;;;;;;17.66;100.00;99036.81;5064367;28;20077;-82
2023/07/28 09:17:07;;;;;;;3.03;0.80;;;;;;;17.77;100.00;99032.56;5087383;28;20047;-82
2023/07/28 09:19:33;;;;;;;3.10;0.82;;;;;;;17.86;100.00;99038.41;5079363;28;20028;-83
2023/07/28 09:22:01;;;;;;;0.65;0.40;;;;;;;17.96;100.00;99035.97;5090734;28;20367;-83
2023/07/28 09:24:32;;;;;;;6.53;1.00;;;;;;;18.00;100.00;99030.19;5103432;28;20524;-83
2023/07/28 09:26:58;;;;;;;3.97;1.13;;;;;;;17.93;100.00;99024.94;5073511;28;20663;-83
2023/07/28 09:29:26;;;;;;;2.95;0.77;;;;;;;17.89;100.00;99035.28;5071799;28;20359;-83
2023/07/28 09:31:52;;;;;;;0.80;0.63;;;;;;;17.77;100.00;99027.22;5059504;28;20528;-83
2023/07/28 09:34:28;;;;;;;4.00;0.90;;;;;;;17.62;100.00;99035.63;5075608;28;20481;-83
2023/07/28 09:36:54;;;;;;;1.15;0.65;;;;;;;17.47;100.00;99044.06;5084459;28;20131;-83
2023/07/28 09:39:21;;;;;;;3.65;0.93;;;;;;;17.40;100.00;99037.97;5071538;28;20067;-83
2023/07/28 09:41:48;;;;;;;4.43;0.98;;;;;;;17.43;100.00;99038.34;5108680;28;20023;-83
2023/07/28 09:44:15;;;;;;;4.43;1.58;;;;;;;17.55;100.00;99032.25;5072302;28;20051;-83
2023/07/28 09:46:52;;;;;;;3.00;1.20;;;;;;;17.71;100.00;99036.94;5095965;28;20548;-83
2023/07/28 09:49:28;;;;;;;2.13;1.17;;;;;;;17.84;100.00;99033.28;5057815;28;20500;-83
2023/07/28 09:52:00;;;;;;;4.35;1.00;;;;;;;17.91;100.00;99030.53;5089682;28;20087;-83
2023/07/28 09:54:29;;;;;;;5.68;0.93;;;;;;;17.82;100.00;99026.53;5074738;28;20493;-83
2023/07/28 09:56:57;;;;;;;2.40;1.00;;;;;;;17.70;100.00;99035.31;5058658;28;20043;-84
2023/07/28 09:59:29;;;;;;;4.07;1.17;;;;;;;17.67;100.00;99021.59;5090928;28;20032;-83
2023/07/28 10:02:00;;;;;;;5.20;1.10;;;;;;;17.71;100.00;99036.94;5101589;28;20042;-83
2023/07/28 10:04:25;;;;;;;4.60;1.25;;;;;;;17.70;100.00;99024.63;5101023;28;20036;-83
2023/07/28 10:06:56;;;;;;;4.63;1.15;;;;;;;17.80;100.00;99025.94;5105106;28;20038;-84
2023/07/28 10:09:27;;;;;;;3.88;1.20;;;;;;;17.98;100.00;99020.53;5078840;28;20062;-82
2023/07/28 10:11:54;;;;;;;4.28;0.90;;;;;;;17.97;100.00;99028.78;5066722;28;20040;-82
2023/07/28 10:14:39;;;;;;;2.92;0.80;;;;;;;17.89;100.00;99035.28;5073565;28;20036;-83
2023/07/28 10:17:05;;;;;;;5.15;1.10;;;;;;;17.73;100.00;99039.41;5079310;28;20043;-83
2023/07/28 10:19:35;;;;;;;4.53;1.13;;;;;;;17.73;100.00;99040.22;5086128;28;20028;-83
2023/07/28 10:22:11;;;;;;;5.20;1.05;;;;;;;17.65;100.00;99029.00;5074869;28;20395;-83
2023/07/28 10:24:51;;;;;;;;;;;;;;;17.46;100.00;99037.06;5056538;28;20051;-83
2023/07/28 10:27:31;;;;;;;4.93;1.20;;;;;;;17.54;100.00;99034.09;5091397;28;20116;-83
2023/07/28 10:29:59;;;;;;;2.95;0.80;;;;;;;17.58;100.00;99032.59;5091976;28;20453;-84
2023/07/28 10:32:29;;;;;;;5.32;0.95;;;;;;;17.62;100.00;99032.97;5076234;28;20115;-83
2023/07/28 10:35:06;;;;;;;4.13;0.90;;;;;;;17.68;100.00;99033.91;5057419;28;20039;-83
2023/07/28 10:37:32;;;;;;;5.53;1.30;;;;;;;17.68;100.00;99039.25;5057885;28;20386;-84
2023/07/28 10:40:26;;;;;;;1.15;0.63;;;;;;;17.72;100.00;99035.09;5087243;28;20043;-83
2023/07/28 10:42:52;;;;;;;3.33;0.95;;;;;;;17.56;100.00;99040.03;5075398;28;20525;-83
2023/07/28 10:45:19;;;;;;;3.90;0.70;;;;;;;17.57;100.00;99046.19;5101395;28;20486;-84
2023/07/28 10:47:45;;;;;;;2.35;0.82;;;;;;;17.59;100.00;99042.25;5073942;28;20067;-82
2023/07/28 10:50:12;;;;;;;1.67;0.65;;;;;;;17.53;100.00;99042.34;5070463;28;20024;-82
2023/07/28 10:52:45;;;;;;;2.85;0.70;;;;;;;17.41;100.00;99056.44;5071162;28;20040;-83
2023/07/28 10:55:20;;;;;;;1.25;0.70;;;;;;;17.38;100.00;99040.88;5079833;28;20103;-83
2023/07/28 10:57:48;;;;;;;6.15;0.70;;;;;;;17.36;100.00;99046.44;5071021;28;20036;-83
2023/07/28 11:00:17;;;;;;;3.03;0.80;;;;;;;17.29;100.00;99058.22;5092346;28;20028;-83
2023/07/28 11:02:43;;;;;;;2.35;0.77;;;;;;;17.25;100.00;99044.50;5075286;28;20034;-82
2023/07/28 11:05:12;;;;;;;2.63;1.17;;;;;;;17.22;100.00;99042.28;5102385;28;20039;-82
2023/07/28 11:07:43;;;;;;;2.15;0.93;;;;;;;17.22;100.00;99047.63;5073698;28;20048;-83
2023/07/28 11:10:13;;;;;;;3.45;1.17;;;;;;;17.14;100.00;99043.41;5084397;28;20115;-83
2023/07/28 11:12:42;;;;;;;2.72;1.15;;;;;;;17.18;100.00;99046.44;5076396;28;20423;-83
2023/07/28 11:15:13;;;;;;;3.40;1.30;;;;;;;17.26;100.00;99038.16;5094508;28;20031;-83
2023/07/28 11:17:40;;;;;;;2.40;1.23;;;;;;;17.26;100.00;99045.31;5087760;28;20525;-83
2023/07/28 11:20:20;;;;;;;4.00;1.13;;;;;;;17.44;100.00;99047.19;5092924;28;20035;-83
2023/07/28 11:23:01;;;;;;;3.35;1.08;;;;;;;17.55;100.00;99043.72;5080214;27;20061;-83
2023/07/28 11:25:29;;;;;;;2.63;0.90;;;;;;;17.67;100.00;99035.78;5083986;28;20034;-83
2023/07/28 11:27:56;;;;;;;3.95;1.20;;;;;;;17.86;100.00;99027.72;5095012;28;20029;-83